sensor_id;sensor_type;location;lat;lon;timestamp;pressure;altitude;pressure_sealevel;temperature;humidity
67038;BME280;53940;53.204;6.590;2022-07-15T00:00:46;102098.78;;;21.59;56.32
67038;BME280;53940;53.204;6.590;2022-07-15T00:03:46;102111.34;;;21.58;56.21
67038;BME280;53940;53.204;6.590;2022-07-15T00:06:46;102108.66;;;21.58;56.30
67038;BME280;53940;53.204;6.590;2022-07-15T00:09:47;102112.28;;;21.57;56.18
67038;BME280;53940;53.204;6.590;2022-07-15T00:13:06;102103.41;;;21.57;55.92
67038;BME280;53940;53.204;6.590;2022-07-15T00:16:06;102113.28;;;21.56;56.11
67038;BME280;53940;53.204;6.590;2022-07-15T00:19:07;102100.09;;;21.53;55.88
67038;BME280;53940;53.204;6.590;2022-07-15T00:22:07;102103.50;;;21.55;56.08
67038;BME280;53940;53.204;6.590;2022-07-15T00:25:08;102101.09;;;21.52;55.85
67038;BME280;53940;53.204;6.590;2022-07-15T00:28:09;102093.03;;;21.52;55.90
67038;BME280;53940;53.204;6.590;2022-07-15T00:31:09;102089.47;;;21.51;55.75
67038;BME280;53940;53.204;6.590;2022-07-15T00:34:10;102085.94;;;21.51;55.80
67038;BME280;53940;53.204;6.590;2022-07-15T00:37:10;102084.13;;;21.51;55.80
67038;BME280;53940;53.204;6.590;2022-07-15T00:40:11;102084.22;;;21.50;56.06
67038;BME280;53940;53.204;6.590;2022-07-15T00:43:13;102090.47;;;21.50;55.98
67038;BME280;53940;53.204;6.590;2022-07-15T00:46:15;102088.75;;;21.49;55.84
67038;BME280;53940;53.204;6.590;2022-07-15T00:49:16;102083.38;;;21.49;55.82
67038;BME280;53940;53.204;6.590;2022-07-15T00:52:18;102087.88;;;21.49;55.77
67038;BME280;53940;53.204;6.590;2022-07-15T00:55:20;102085.19;;;21.49;55.82
67038;BME280;53940;53.204;6.590;2022-07-15T00:58:22;102082.63;;;21.47;55.96
67038;BME280;53940;53.204;6.590;2022-07-15T01:01:26;102080.81;;;21.48;55.76
67038;BME280;53940;53.204;6.590;2022-07-15T01:04:27;102082.63;;;21.47;55.82
67038;BME280;53940;53.204;6.590;2022-07-15T01:07:27;102084.47;;;21.47;55.91
67038;BME280;53940;53.204;6.590;2022-07-15T01:10:28;102090.81;;;21.46;55.70
67038;BME280;53940;53.204;6.590;2022-07-15T01:13:28;102090.81;;;21.46;55.82
67038;BME280;53940;53.204;6.590;2022-07-15T01:16:29;102087.25;;;21.45;55.75
67038;BME280;53940;53.204;6.590;2022-07-15T01:19:29;102086.38;;;21.45;55.45
67038;BME280;53940;53.204;6.590;2022-07-15T01:22:29;102085.44;;;21.46;55.71
67038;BME280;53940;53.204;6.590;2022-07-15T01:25:30;102086.38;;;21.45;55.42
67038;BME280;53940;53.204;6.590;2022-07-15T01:28:30;102088.34;;;21.43;55.32
67038;BME280;53940;53.204;6.590;2022-07-15T01:31:31;102087.38;;;21.44;55.38
67038;BME280;53940;53.204;6.590;2022-07-15T01:34:32;102093.69;;;21.43;55.52
67038;BME280;53940;53.204;6.590;2022-07-15T01:37:32;102093.69;;;21.43;55.43
67038;BME280;53940;53.204;6.590;2022-07-15T01:40:32;102093.69;;;21.43;55.49
67038;BME280;53940;53.204;6.590;2022-07-15T01:43:33;102098.19;;;21.42;55.63
67038;BME280;53940;53.204;6.590;2022-07-15T01:46:33;102094.69;;;21.41;55.59
67038;BME280;53940;53.204;6.590;2022-07-15T01:49:33;102103.56;;;21.42;55.67
67038;BME280;53940;53.204;6.590;2022-07-15T01:52:34;102105.41;;;21.41;55.57
67038;BME280;53940;53.204;6.590;2022-07-15T01:55:34;102102.72;;;21.41;55.40
67038;BME280;53940;53.204;6.590;2022-07-15T01:58:34;102108.09;;;21.41;55.58
67038;BME280;53940;53.204;6.590;2022-07-15T02:01:35;102107.22;;;21.41;55.29
67038;BME280;53940;53.204;6.590;2022-07-15T02:04:35;102106.38;;;21.40;55.31
67038;BME280;53940;53.204;6.590;2022-07-15T02:07:37;102111.75;;;21.40;55.51
67038;BME280;53940;53.204;6.590;2022-07-15T02:10:38;102110.03;;;21.39;55.33
67038;BME280;53940;53.204;6.590;2022-07-15T02:13:41;102102.00;;;21.39;55.25
67038;BME280;53940;53.204;6.590;2022-07-15T02:16:42;102096.63;;;21.39;55.38
67038;BME280;53940;53.204;6.590;2022-07-15T02:19:42;102095.66;;;21.40;55.44
67038;BME280;53940;53.204;6.590;2022-07-15T02:22:42;102092.22;;;21.38;55.30
67038;BME280;53940;53.204;6.590;2022-07-15T02:25:43;102095.88;;;21.37;55.32
67038;BME280;53940;53.204;6.590;2022-07-15T02:28:43;102097.56;;;21.38;55.32
67038;BME280;53940;53.204;6.590;2022-07-15T02:31:43;102097.56;;;21.38;55.33
67038;BME280;53940;53.204;6.590;2022-07-15T02:34:44;102097.56;;;21.38;55.20
67038;BME280;53940;53.204;6.590;2022-07-15T02:37:45;102093.19;;;21.37;55.03
67038;BME280;53940;53.204;6.590;2022-07-15T02:40:46;102110.97;;;21.38;55.33
67038;BME280;53940;53.204;6.590;2022-07-15T02:43:46;102100.41;;;21.37;55.24
67038;BME280;53940;53.204;6.590;2022-07-15T02:46:46;102107.56;;;21.36;55.10
67038;BME280;53940;53.204;6.590;2022-07-15T02:49:47;102104.88;;;21.36;55.19
67038;BME280;53940;53.204;6.590;2022-07-15T02:52:48;102088.06;;;21.34;55.23
67038;BME280;53940;53.204;6.590;2022-07-15T02:55:48;102096.84;;;21.36;54.97
67038;BME280;53940;53.204;6.590;2022-07-15T02:58:49;102099.53;;;21.36;55.12
67038;BME280;53940;53.204;6.590;2022-07-15T03:01:49;102097.81;;;21.35;55.19
67038;BME280;53940;53.204;6.590;2022-07-15T03:04:50;102091.59;;;21.35;55.12
67038;BME280;53940;53.204;6.590;2022-07-15T03:07:50;102105.00;;;21.35;54.90
67038;BME280;53940;53.204;6.590;2022-07-15T03:10:51;102106.84;;;21.34;54.79
67038;BME280;53940;53.204;6.590;2022-07-15T03:13:51;102102.31;;;21.35;54.87
67038;BME280;53940;53.204;6.590;2022-07-15T03:16:52;102106.84;;;21.34;54.98
67038;BME280;53940;53.204;6.590;2022-07-15T03:19:52;102105.13;;;21.33;54.77
67038;BME280;53940;53.204;6.590;2022-07-15T03:22:55;102107.81;;;21.33;55.03
67038;BME280;53940;53.204;6.590;2022-07-15T03:25:55;102104.25;;;21.33;54.74
67038;BME280;53940;53.204;6.590;2022-07-15T03:28:55;102114.13;;;21.32;54.88
67038;BME280;53940;53.204;6.590;2022-07-15T03:31:57;102103.38;;;21.32;54.68
67038;BME280;53940;53.204;6.590;2022-07-15T03:34:58;102115.00;;;21.33;54.85
67038;BME280;53940;53.204;6.590;2022-07-15T03:37:58;102115.84;;;21.33;55.01
67038;BME280;53940;53.204;6.590;2022-07-15T03:40:59;102114.13;;;21.32;54.99
67038;BME280;53940;53.204;6.590;2022-07-15T03:44:00;102118.66;;;21.32;54.75
67038;BME280;53940;53.204;6.590;2022-07-15T03:47:00;102116.81;;;21.32;54.73
67038;BME280;53940;53.204;6.590;2022-07-15T03:50:01;102117.78;;;21.31;54.93
67038;BME280;53940;53.204;6.590;2022-07-15T03:53:01;102124.84;;;21.32;54.61
67038;BME280;53940;53.204;6.590;2022-07-15T03:56:02;102125.81;;;21.31;54.73
67038;BME280;53940;53.204;6.590;2022-07-15T03:59:02;102128.50;;;21.31;54.72
67038;BME280;53940;53.204;6.590;2022-07-15T04:02:03;102126.78;;;21.30;54.93
67038;BME280;53940;53.204;6.590;2022-07-15T04:05:04;102127.66;;;21.31;54.71
67038;BME280;53940;53.204;6.590;2022-07-15T04:08:04;102129.47;;;21.30;54.57
67038;BME280;53940;53.204;6.590;2022-07-15T04:11:05;102136.53;;;21.31;54.76
67038;BME280;53940;53.204;6.590;2022-07-15T04:14:05;102137.53;;;21.30;54.75
67038;BME280;53940;53.204;6.590;2022-07-15T04:17:06;102142.00;;;21.30;54.60
67038;BME280;53940;53.204;6.590;2022-07-15T04:20:07;102140.19;;;21.30;54.57
67038;BME280;53940;53.204;6.590;2022-07-15T04:23:07;102140.19;;;21.30;54.62
67038;BME280;53940;53.204;6.590;2022-07-15T04:26:08;102143.75;;;21.31;54.61
67038;BME280;53940;53.204;6.590;2022-07-15T04:29:08;102158.00;;;21.31;54.80
67038;BME280;53940;53.204;6.590;2022-07-15T04:32:08;102153.59;;;21.30;54.90
67038;BME280;53940;53.204;6.590;2022-07-15T04:35:09;102160.69;;;21.31;54.72
67038;BME280;53940;53.204;6.590;2022-07-15T04:38:10;102158.00;;;21.31;54.88
67038;BME280;53940;53.204;6.590;2022-07-15T04:41:10;102159.84;;;21.31;54.83
67038;BME280;53940;53.204;6.590;2022-07-15T04:44:10;102160.69;;;21.31;54.78
67038;BME280;53940;53.204;6.590;2022-07-15T04:47:10;102164.34;;;21.30;55.09
67038;BME280;53940;53.204;6.590;2022-07-15T04:50:11;102171.41;;;21.31;54.95
67038;BME280;53940;53.204;6.590;2022-07-15T04:53:30;102167.75;;;21.32;54.67
67038;BME280;53940;53.204;6.590;2022-07-15T04:56:30;102171.41;;;21.31;55.00
67038;BME280;53940;53.204;6.590;2022-07-15T04:59:31;102173.09;;;21.32;54.71
67038;BME280;53940;53.204;6.590;2022-07-15T05:02:32;102174.94;;;21.32;54.61
67038;BME280;53940;53.204;6.590;2022-07-15T05:05:33;102174.84;;;21.33;55.06
67038;BME280;53940;53.204;6.590;2022-07-15T05:08:33;102179.34;;;21.33;54.96
67038;BME280;53940;53.204;6.590;2022-07-15T05:11:33;102179.34;;;21.33;55.13
67038;BME280;53940;53.204;6.590;2022-07-15T05:14:34;102174.84;;;21.33;55.08
67038;BME280;53940;53.204;6.590;2022-07-15T05:17:34;102181.16;;;21.32;54.74
67038;BME280;53940;53.204;6.590;2022-07-15T05:20:35;102176.75;;;21.31;54.88
67038;BME280;53940;53.204;6.590;2022-07-15T05:23:35;102173.09;;;21.32;54.79
67038;BME280;53940;53.204;6.590;2022-07-15T05:26:36;102178.47;;;21.32;54.86
67038;BME280;53940;53.204;6.590;2022-07-15T05:29:36;102180.22;;;21.33;54.67
67038;BME280;53940;53.204;6.590;2022-07-15T05:32:36;102181.16;;;21.32;54.74
67038;BME280;53940;53.204;6.590;2022-07-15T05:35:37;102181.16;;;21.32;54.88
67038;BME280;53940;53.204;6.590;2022-07-15T05:38:37;102182.91;;;21.33;54.64
67038;BME280;53940;53.204;6.590;2022-07-15T05:41:37;102176.56;;;21.34;54.79
67038;BME280;53940;53.204;6.590;2022-07-15T05:44:38;102179.25;;;21.34;54.99
67038;BME280;53940;53.204;6.590;2022-07-15T05:47:38;102180.06;;;21.35;54.77
67038;BME280;53940;53.204;6.590;2022-07-15T05:50:38;102187.16;;;21.36;54.84
67038;BME280;53940;53.204;6.590;2022-07-15T05:53:39;102184.47;;;21.36;54.58
67038;BME280;53940;53.204;6.590;2022-07-15T05:56:39;102180.84;;;21.37;54.76
67038;BME280;53940;53.204;6.590;2022-07-15T05:59:39;102179.97;;;21.36;54.63
67038;BME280;53940;53.204;6.590;2022-07-15T06:02:40;102186.22;;;21.37;54.87
67038;BME280;53940;53.204;6.590;2022-07-15T06:05:40;102187.03;;;21.37;54.61
67038;BME280;53940;53.204;6.590;2022-07-15T06:08:40;102191.56;;;21.37;54.88
67038;BME280;53940;53.204;6.590;2022-07-15T06:11:41;102196.78;;;21.38;54.75
67038;BME280;53940;53.204;6.590;2022-07-15T06:14:41;102193.28;;;21.38;54.67
67038;BME280;53940;53.204;6.590;2022-07-15T06:17:41;102204.84;;;21.38;54.97
67038;BME280;53940;53.204;6.590;2022-07-15T06:20:42;102211.06;;;21.39;54.59
67038;BME280;53940;53.204;6.590;2022-07-15T06:23:42;102225.34;;;21.39;54.60
67038;BME280;53940;53.204;6.590;2022-07-15T06:26:42;102211.94;;;21.39;54.72
67038;BME280;53940;53.204;6.590;2022-07-15T06:29:43;102210.00;;;21.41;54.81
67038;BME280;53940;53.204;6.590;2022-07-15T06:32:43;102205.47;;;21.42;54.80
67038;BME280;53940;53.204;6.590;2022-07-15T06:35:43;102206.34;;;21.43;54.86
67038;BME280;53940;53.204;6.590;2022-07-15T06:38:44;102203.56;;;21.44;54.76
67038;BME280;53940;53.204;6.590;2022-07-15T06:41:45;102206.88;;;21.48;54.59
67038;BME280;53940;53.204;6.590;2022-07-15T06:44:45;102205.91;;;21.49;54.81
67038;BME280;53940;53.204;6.590;2022-07-15T06:47:45;102197.75;;;21.50;54.49
67038;BME280;53940;53.204;6.590;2022-07-15T06:50:45;102200.31;;;21.52;54.59
67038;BME280;53940;53.204;6.590;2022-07-15T06:53:46;102205.69;;;21.52;54.85
67038;BME280;53940;53.204;6.590;2022-07-15T06:56:46;102200.94;;;21.56;54.85
67038;BME280;53940;53.204;6.590;2022-07-15T06:59:47;102201.78;;;21.56;54.82
67038;BME280;53940;53.204;6.590;2022-07-15T07:02:47;102199.88;;;21.58;54.82
67038;BME280;53940;53.204;6.590;2022-07-15T07:05:47;102197.19;;;21.58;54.59
67038;BME280;53940;53.204;6.590;2022-07-15T07:08:48;102199.88;;;21.58;54.51
67038;BME280;53940;53.204;6.590;2022-07-15T07:11:49;102203.19;;;21.62;54.80
67038;BME280;53940;53.204;6.590;2022-07-15T07:14:49;102196.84;;;21.63;54.80
67038;BME280;53940;53.204;6.590;2022-07-15T07:17:52;102201.13;;;21.65;54.88
67038;BME280;53940;53.204;6.590;2022-07-15T07:20:53;102200.16;;;21.66;54.55
67038;BME280;53940;53.204;6.590;2022-07-15T07:23:53;102197.25;;;21.70;54.88
67038;BME280;53940;53.204;6.590;2022-07-15T07:26:53;102191.69;;;21.73;54.51
67038;BME280;53940;53.204;6.590;2022-07-15T07:29:54;102190.50;;;21.77;54.80
67038;BME280;53940;53.204;6.590;2022-07-15T07:32:54;102188.53;;;21.79;54.46
67038;BME280;53940;53.204;6.590;2022-07-15T07:35:54;102184.53;;;21.85;54.55
67038;BME280;53940;53.204;6.590;2022-07-15T07:38:55;102183.44;;;21.87;54.50
67038;BME280;53940;53.204;6.590;2022-07-15T07:41:55;102180.53;;;21.90;54.43
67038;BME280;53940;53.204;6.590;2022-07-15T07:44:55;102183.22;;;21.90;54.79
67038;BME280;53940;53.204;6.590;2022-07-15T07:47:56;102184.94;;;21.91;54.48
67038;BME280;53940;53.204;6.590;2022-07-15T07:50:57;102190.31;;;21.91;54.68
67038;BME280;53940;53.204;6.590;2022-07-15T07:53:57;102189.31;;;21.92;54.50
67038;BME280;53940;53.204;6.590;2022-07-15T07:56:58;102183.97;;;21.92;54.36
67038;BME280;53940;53.204;6.590;2022-07-15T07:59:58;102181.28;;;21.92;54.64
67038;BME280;53940;53.204;6.590;2022-07-15T08:03:00;102179.47;;;21.93;54.47
67038;BME280;53940;53.204;6.590;2022-07-15T08:06:00;102174.94;;;21.93;54.48
67038;BME280;53940;53.204;6.590;2022-07-15T08:09:01;102179.31;;;21.94;54.44
67038;BME280;53940;53.204;6.590;2022-07-15T08:12:01;102181.06;;;21.96;54.38
67038;BME280;53940;53.204;6.590;2022-07-15T08:15:04;102180.91;;;21.97;54.67
67038;BME280;53940;53.204;6.590;2022-07-15T08:18:05;102185.22;;;22.00;54.42
67038;BME280;53940;53.204;6.590;2022-07-15T08:21:05;102197.78;;;21.99;54.58
67038;BME280;53940;53.204;6.590;2022-07-15T08:24:06;102194.97;;;22.01;54.55
67038;BME280;53940;53.204;6.590;2022-07-15T08:27:07;102203.03;;;22.01;54.44
67038;BME280;53940;53.204;6.590;2022-07-15T08:30:08;102197.53;;;22.02;54.42
67038;BME280;53940;53.204;6.590;2022-07-15T08:33:09;102197.53;;;22.02;54.69
67038;BME280;53940;53.204;6.590;2022-07-15T08:36:09;102193.03;;;22.03;54.41
67038;BME280;53940;53.204;6.590;2022-07-15T08:39:09;102196.56;;;22.03;54.53
67038;BME280;53940;53.204;6.590;2022-07-15T08:42:10;102192.78;;;22.06;54.63
67038;BME280;53940;53.204;6.590;2022-07-15T08:45:10;102199.88;;;22.07;54.45
67038;BME280;53940;53.204;6.590;2022-07-15T08:48:12;102192.56;;;22.09;54.56
67038;BME280;53940;53.204;6.590;2022-07-15T08:51:13;102196.88;;;22.12;54.33
67038;BME280;53940;53.204;6.590;2022-07-15T08:54:14;102203.06;;;22.12;54.14
67038;BME280;53940;53.204;6.590;2022-07-15T08:57:15;102194.03;;;22.13;54.35
67038;BME280;53940;53.204;6.590;2022-07-15T09:00:16;102195.78;;;22.14;54.33
67038;BME280;53940;53.204;6.590;2022-07-15T09:03:16;102188.56;;;22.15;54.25
67038;BME280;53940;53.204;6.590;2022-07-15T09:06:39;102185.03;;;22.14;54.21
67038;BME280;53940;53.204;6.590;2022-07-15T09:09:39;102188.44;;;22.16;54.23
67038;BME280;53940;53.204;6.590;2022-07-15T09:12:40;102187.34;;;22.19;54.30
67038;BME280;53940;53.204;6.590;2022-07-15T09:15:42;102184.31;;;22.24;54.55
67038;BME280;53940;53.204;6.590;2022-07-15T09:18:43;102180.44;;;22.28;54.04
67038;BME280;53940;53.204;6.590;2022-07-15T09:22:00;102183.84;;;22.30;54.16
67038;BME280;53940;53.204;6.590;2022-07-15T09:25:03;102184.72;;;22.30;54.42
67038;BME280;53940;53.204;6.590;2022-07-15T09:28:06;102181.06;;;22.31;54.15
67038;BME280;53940;53.204;6.590;2022-07-15T09:31:07;102185.56;;;22.31;54.33
67038;BME280;53940;53.204;6.590;2022-07-15T09:34:26;102189.00;;;22.33;54.11
67038;BME280;53940;53.204;6.590;2022-07-15T09:37:27;102189.94;;;22.32;54.18
67038;BME280;53940;53.204;6.590;2022-07-15T09:40:27;102199.75;;;22.33;54.04
67038;BME280;53940;53.204;6.590;2022-07-15T09:43:29;102194.38;;;22.33;54.00
67038;BME280;53940;53.204;6.590;2022-07-15T09:49:49;102197.06;;;22.33;54.14
67038;BME280;53940;53.204;6.590;2022-07-15T09:52:49;102195.22;;;22.33;54.15
67038;BME280;53940;53.204;6.590;2022-07-15T09:55:51;102195.22;;;22.33;53.96
67038;BME280;53940;53.204;6.590;2022-07-15T09:58:52;102187.03;;;22.35;54.32
67038;BME280;53940;53.204;6.590;2022-07-15T10:01:53;102185.06;;;22.37;54.04
67038;BME280;53940;53.204;6.590;2022-07-15T10:04:54;102186.78;;;22.38;53.94
67038;BME280;53940;53.204;6.590;2022-07-15T10:07:57;102199.25;;;22.39;53.92
67038;BME280;53940;53.204;6.590;2022-07-15T10:10:59;102184.84;;;22.40;53.85
67038;BME280;53940;53.204;6.590;2022-07-15T10:17:59;102174.13;;;22.40;53.99
67038;BME280;53940;53.204;6.590;2022-07-15T10:21:15;102177.53;;;22.42;54.02
67038;BME280;53940;53.204;6.590;2022-07-15T10:24:24;102164.09;;;22.42;54.18
67038;BME280;53940;53.204;6.590;2022-07-15T10:27:54;102169.34;;;22.44;54.10
67038;BME280;53940;53.204;6.590;2022-07-15T10:31:14;102164.81;;;22.44;54.09
67038;BME280;53940;53.204;6.590;2022-07-15T10:34:16;102166.56;;;22.45;54.08
67038;BME280;53940;53.204;6.590;2022-07-15T10:37:17;102159.22;;;22.47;54.19
67038;BME280;53940;53.204;6.590;2022-07-15T10:40:17;102156.53;;;22.47;54.10
67038;BME280;53940;53.204;6.590;2022-07-15T10:43:17;102165.31;;;22.49;53.92
67038;BME280;53940;53.204;6.590;2022-07-15T10:52:26;102159.84;;;22.51;54.33
67038;BME280;53940;53.204;6.590;2022-07-15T10:55:27;102166.94;;;22.52;54.31
67038;BME280;53940;53.204;6.590;2022-07-15T10:58:27;102160.59;;;22.53;54.34
67038;BME280;53940;53.204;6.590;2022-07-15T11:01:28;102157.91;;;22.53;54.40
67038;BME280;53940;53.204;6.590;2022-07-15T11:04:30;102162.44;;;22.53;54.32
67038;BME280;53940;53.204;6.590;2022-07-15T11:07:30;102162.44;;;22.53;54.46
67038;BME280;53940;53.204;6.590;2022-07-15T11:10:31;102157.06;;;22.53;54.30
67038;BME280;53940;53.204;6.590;2022-07-15T11:13:33;102157.06;;;22.53;54.10
67038;BME280;53940;53.204;6.590;2022-07-15T11:16:33;102160.75;;;22.52;54.39
67038;BME280;53940;53.204;6.590;2022-07-15T11:19:35;102151.69;;;22.53;54.20
67038;BME280;53940;53.204;6.590;2022-07-15T11:22:41;102149.09;;;22.51;54.21
67038;BME280;53940;53.204;6.590;2022-07-15T11:25:41;102146.41;;;22.51;54.24
67038;BME280;53940;53.204;6.590;2022-07-15T11:29:08;102144.63;;;22.52;54.35
67038;BME280;53940;53.204;6.590;2022-07-15T11:32:09;102147.31;;;22.52;54.10
67038;BME280;53940;53.204;6.590;2022-07-15T11:35:10;102144.63;;;22.52;54.34
67038;BME280;53940;53.204;6.590;2022-07-15T11:38:10;102140.94;;;22.53;54.13
67038;BME280;53940;53.204;6.590;2022-07-15T11:41:11;102133.88;;;22.52;54.20
67038;BME280;53940;53.204;6.590;2022-07-15T11:44:30;102132.03;;;22.52;54.30
67038;BME280;53940;53.204;6.590;2022-07-15T11:47:30;102128.34;;;22.53;54.31
67038;BME280;53940;53.204;6.590;2022-07-15T11:50:31;102129.22;;;22.54;54.51
67038;BME280;53940;53.204;6.590;2022-07-15T11:53:41;102133.63;;;22.55;54.54
67038;BME280;53940;53.204;6.590;2022-07-15T11:56:43;102126.53;;;22.54;54.66
67038;BME280;53940;53.204;6.590;2022-07-15T11:59:57;102134.34;;;22.57;54.42
67038;BME280;53940;53.204;6.590;2022-07-15T12:03:08;102126.28;;;22.57;54.66
67038;BME280;53940;53.204;6.590;2022-07-15T12:06:23;102121.66;;;22.59;54.61
67038;BME280;53940;53.204;6.590;2022-07-15T12:09:24;102119.81;;;22.59;54.36
67038;BME280;53940;53.204;6.590;2022-07-15T12:12:24;102130.44;;;22.61;54.52
67038;BME280;53940;53.204;6.590;2022-07-15T12:15:25;102132.28;;;22.60;54.46
67038;BME280;53940;53.204;6.590;2022-07-15T12:18:25;102132.41;;;22.59;54.51
67038;BME280;53940;53.204;6.590;2022-07-15T12:21:27;102142.19;;;22.60;54.60
67038;BME280;53940;53.204;6.590;2022-07-15T12:24:50;102131.44;;;22.60;54.48
67038;BME280;53940;53.204;6.590;2022-07-15T12:27:51;102136.81;;;22.60;54.62
67038;BME280;53940;53.204;6.590;2022-07-15T12:30:52;102138.50;;;22.61;54.50
67038;BME280;53940;53.204;6.590;2022-07-15T12:33:52;102147.56;;;22.60;54.64
67038;BME280;53940;53.204;6.590;2022-07-15T12:36:57;102136.81;;;22.60;54.63
67038;BME280;53940;53.204;6.590;2022-07-15T12:40:03;102145.72;;;22.60;54.45
67038;BME280;53940;53.204;6.590;2022-07-15T12:43:04;102143.88;;;22.61;54.67
67038;BME280;53940;53.204;6.590;2022-07-15T12:46:04;102141.19;;;22.61;54.49
67038;BME280;53940;53.204;6.590;2022-07-15T12:49:05;102143.88;;;22.61;54.57
67038;BME280;53940;53.204;6.590;2022-07-15T12:52:19;102140.22;;;22.62;54.76
67038;BME280;53940;53.204;6.590;2022-07-15T12:55:25;102145.59;;;22.62;54.49
67038;BME280;53940;53.204;6.590;2022-07-15T12:58:28;102151.81;;;22.63;54.63
67038;BME280;53940;53.204;6.590;2022-07-15T13:01:29;102141.81;;;22.65;54.51
67038;BME280;53940;53.204;6.590;2022-07-15T13:04:30;102150.84;;;22.64;54.50
67038;BME280;53940;53.204;6.590;2022-07-15T13:07:31;102146.34;;;22.64;54.66
67038;BME280;53940;53.204;6.590;2022-07-15T13:10:32;102139.13;;;22.65;54.42
67038;BME280;53940;53.204;6.590;2022-07-15T13:13:34;102144.50;;;22.65;54.44
67038;BME280;53940;53.204;6.590;2022-07-15T13:16:36;102154.41;;;22.64;54.37
67038;BME280;53940;53.204;6.590;2022-07-15T13:19:36;102142.06;;;22.61;54.67
67038;BME280;53940;53.204;6.590;2022-07-15T13:22:37;102148.03;;;22.65;54.32
67038;BME280;53940;53.204;6.590;2022-07-15T13:25:38;102153.41;;;22.65;54.53
67038;BME280;53940;53.204;6.590;2022-07-15T13:28:40;102143.66;;;22.64;54.42
67038;BME280;53940;53.204;6.590;2022-07-15T13:31:41;102149.88;;;22.65;54.49
67038;BME280;53940;53.204;6.590;2022-07-15T13:34:41;102148.03;;;22.65;54.51
67038;BME280;53940;53.204;6.590;2022-07-15T13:37:42;102156.09;;;22.65;54.32
67038;BME280;53940;53.204;6.590;2022-07-15T13:40:42;102142.66;;;22.65;54.22
67038;BME280;53940;53.204;6.590;2022-07-15T13:43:42;102140.97;;;22.64;54.07
67038;BME280;53940;53.204;6.590;2022-07-15T13:46:43;102143.66;;;22.64;54.39
67038;BME280;53940;53.204;6.590;2022-07-15T13:49:43;102151.56;;;22.66;54.01
67038;BME280;53940;53.204;6.590;2022-07-15T13:53:02;102149.03;;;22.64;54.15
67038;BME280;53940;53.204;6.590;2022-07-15T13:56:02;102145.34;;;22.65;54.21
67038;BME280;53940;53.204;6.590;2022-07-15T13:59:03;102144.50;;;22.65;54.36
67038;BME280;53940;53.204;6.590;2022-07-15T14:02:04;102141.69;;;22.66;54.24
67038;BME280;53940;53.204;6.590;2022-07-15T14:05:05;102131.91;;;22.65;54.25
67038;BME280;53940;53.204;6.590;2022-07-15T14:08:06;102127.53;;;22.64;54.14
67038;BME280;53940;53.204;6.590;2022-07-15T14:11:06;102128.25;;;22.66;54.33
67038;BME280;53940;53.204;6.590;2022-07-15T14:14:07;102128.25;;;22.66;54.37
67038;BME280;53940;53.204;6.590;2022-07-15T14:17:07;102120.19;;;22.66;54.15
67038;BME280;53940;53.204;6.590;2022-07-15T14:20:07;102130.06;;;22.66;54.43
67038;BME280;53940;53.204;6.590;2022-07-15T14:23:08;102134.63;;;22.65;54.20
67038;BME280;53940;53.204;6.590;2022-07-15T14:26:10;102120.44;;;22.63;54.30
67038;BME280;53940;53.204;6.590;2022-07-15T14:29:11;102108.84;;;22.63;54.16
67038;BME280;53940;53.204;6.590;2022-07-15T14:32:11;102115.06;;;22.63;54.16
67038;BME280;53940;53.204;6.590;2022-07-15T14:35:11;102109.72;;;22.63;54.30
67038;BME280;53940;53.204;6.590;2022-07-15T14:38:12;102109.72;;;22.63;54.03
67038;BME280;53940;53.204;6.590;2022-07-15T14:41:12;102105.28;;;22.62;54.04
67038;BME280;53940;53.204;6.590;2022-07-15T14:44:12;102107.97;;;22.62;54.12
67038;BME280;53940;53.204;6.590;2022-07-15T14:47:13;102106.16;;;22.63;54.11
67038;BME280;53940;53.204;6.590;2022-07-15T14:50:13;102097.22;;;22.62;54.05
67038;BME280;53940;53.204;6.590;2022-07-15T14:53:14;102102.59;;;22.62;54.27
67038;BME280;53940;53.204;6.590;2022-07-15T14:56:14;102094.53;;;22.62;54.10
67038;BME280;53940;53.204;6.590;2022-07-15T14:59:14;102097.22;;;22.62;54.21
67038;BME280;53940;53.204;6.590;2022-07-15T15:02:15;102088.31;;;22.61;54.04
67038;BME280;53940;53.204;6.590;2022-07-15T15:05:15;102090.03;;;22.63;54.13
67038;BME280;53940;53.204;6.590;2022-07-15T15:08:16;102091.84;;;22.62;54.20
67038;BME280;53940;53.204;6.590;2022-07-15T15:11:16;102093.59;;;22.63;54.18
67038;BME280;53940;53.204;6.590;2022-07-15T15:14:16;102086.38;;;22.64;54.34
67038;BME280;53940;53.204;6.590;2022-07-15T15:17:17;102089.91;;;22.64;54.31
67038;BME280;53940;53.204;6.590;2022-07-15T15:20:17;102094.41;;;22.64;54.27
67038;BME280;53940;53.204;6.590;2022-07-15T15:23:18;102085.38;;;22.65;53.98
67038;BME280;53940;53.204;6.590;2022-07-15T15:26:18;102081.84;;;22.64;54.32
67038;BME280;53940;53.204;6.590;2022-07-15T15:29:21;102080.88;;;22.65;54.20
67038;BME280;53940;53.204;6.590;2022-07-15T15:32:22;102081.72;;;22.66;54.43
67038;BME280;53940;53.204;6.590;2022-07-15T15:35:23;102069.25;;;22.65;54.37
67038;BME280;53940;53.204;6.590;2022-07-15T15:38:23;102066.47;;;22.66;54.38
67038;BME280;53940;53.204;6.590;2022-07-15T15:41:24;102058.41;;;22.66;54.48
67038;BME280;53940;53.204;6.590;2022-07-15T15:44:24;102069.03;;;22.68;54.36
67038;BME280;53940;53.204;6.590;2022-07-15T15:47:24;102065.47;;;22.67;54.26
67038;BME280;53940;53.204;6.590;2022-07-15T15:50:25;102064.50;;;22.68;54.43
67038;BME280;53940;53.204;6.590;2022-07-15T15:53:25;102050.22;;;22.68;54.35
67038;BME280;53940;53.204;6.590;2022-07-15T15:56:26;102049.22;;;22.69;54.27
67038;BME280;53940;53.204;6.590;2022-07-15T15:59:26;102053.75;;;22.68;54.38
67038;BME280;53940;53.204;6.590;2022-07-15T16:02:26;102058.28;;;22.68;54.41